<?xml version="1.0" encoding="UTF-8" standalone="no" ?>
<gpx xmlns="http://www.topografix.com/GPX/1/1" xmlns:xsi="http://www.w3.org/2001/XMLSchema-instance" xsi:schemaLocation="http://www.topografix.com/GPX/1/1 http://www.topografix.com/GPX/1/1/gpx.xsd" version="1.1" creator="VisuGPX - https://www.visugpx.com">
  <metadata>
    <name>Camplong - Vallée de l'Espaze</name>
    <desc><![CDATA[2017-11 - Camplong - Vallée de l'Espaze

[b]album[/b] : [url]https://photos.app.goo.gl/vWaYsETSzKgZRWUO2[/url]
[img]https://blogger.googleusercontent.com/img/b/R29vZ2xl/AVvXsEg-Mv4S0Hd8g0UcsBe4vzd-rqQN-VeOn9OXl2yn9QYV4wbiK70nNP7Cu9lIipfx4RHJMuMGLRrbyDNvp5KgaGuXv6WilQJRzy0AL5vxPzxCYZ1LW7VAYdOe53aPlx9fBsuRLMFN1bbiU5dxygXhp1zVD9KZojAtGesybfh7jWIKrxb59-6-aa8NGe-C_6w4/s600/2017-11-25%20Camplong.JPG[/img]
[b]Idées de randonnées dans la même région[/b]
Parcours : [url]https://www.visugpx.com/membres/24856/montagne/haut-languedoc/[/url]
Photos : [url]https://jcvertygo.blogspot.com/p/haut-languedoc.html[/url]]]></desc>
  </metadata>
  <trk>
    <name><![CDATA[2017-11-25_15h13m23_camplong]]></name>
    <extensions>
      <line xmlns="http://www.topografix.com/GPX/gpx_style/0/2">
        <color>0000FF</color>
        <width>4</width>
      </line>
    </extensions>
    <trkseg>
      <trkpt lat="43.67947" lon="3.11404">
        <ele>333.6</ele>
        <time>2017-11-25T11:48:01Z</time>
      </trkpt>
      <trkpt lat="43.67957" lon="3.1141">
        <ele>315.67861851966</ele>
        <time>2017-11-25T11:48:06Z</time>
      </trkpt>
      <trkpt lat="43.67962" lon="3.11411">
        <ele>315.67861851966</ele>
        <time>2017-11-25T11:48:11Z</time>
      </trkpt>
      <trkpt lat="43.67967" lon="3.11411">
        <ele>322.55045267361</ele>
        <time>2017-11-25T11:48:16Z</time>
      </trkpt>
      <trkpt lat="43.67971" lon="3.1141">
        <ele>322.55045267361</ele>
        <time>2017-11-25T11:48:21Z</time>
      </trkpt>
      <trkpt lat="43.67974" lon="3.11409">
        <ele>322.55045267361</ele>
        <time>2017-11-25T11:48:26Z</time>
      </trkpt>
      <trkpt lat="43.67978" lon="3.11409">
        <ele>326.32466166522</ele>
        <time>2017-11-25T11:48:31Z</time>
      </trkpt>
      <trkpt lat="43.67982" lon="3.1141">
        <ele>326.32466166522</ele>
        <time>2017-11-25T11:48:36Z</time>
      </trkpt>
      <trkpt lat="43.67998" lon="3.11406">
        <ele>327.13369191603</ele>
        <time>2017-11-25T11:49:16Z</time>
      </trkpt>
      <trkpt lat="43.68002" lon="3.11404">
        <ele>327.13369191603</ele>
        <time>2017-11-25T11:49:21Z</time>
      </trkpt>
      <trkpt lat="43.68019" lon="3.11401">
        <ele>328.62946165037</ele>
        <time>2017-11-25T11:49:36Z</time>
      </trkpt>
      <trkpt lat="43.68052" lon="3.11388">
        <ele>330.51944919451</ele>
        <time>2017-11-25T11:50:17Z</time>
      </trkpt>
      <trkpt lat="43.68066" lon="3.11382">
        <ele>332.63978113194</ele>
        <time>2017-11-25T11:50:17Z</time>
      </trkpt>
      <trkpt lat="43.68067" lon="3.11381">
        <ele>332.63978113194</ele>
        <time>2017-11-25T11:50:18Z</time>
      </trkpt>
      <trkpt lat="43.68149" lon="3.11366">
        <ele>335.05703323803</ele>
        <time>2017-11-25T11:52:08Z</time>
      </trkpt>
      <trkpt lat="43.68158" lon="3.11364">
        <ele>335.05703323803</ele>
        <time>2017-11-25T11:52:31Z</time>
      </trkpt>
      <trkpt lat="43.6816" lon="3.11362">
        <ele>336.30283287095</ele>
        <time>2017-11-25T11:52:31Z</time>
      </trkpt>
      <trkpt lat="43.68179" lon="3.11356">
        <ele>337.58952821781</ele>
        <time>2017-11-25T11:53:01Z</time>
      </trkpt>
      <trkpt lat="43.68196" lon="3.11364">
        <ele>338.78586231765</ele>
        <time>2017-11-25T11:53:21Z</time>
      </trkpt>
      <trkpt lat="43.6825" lon="3.11356">
        <ele>339.71926964813</ele>
        <time>2017-11-25T11:54:19Z</time>
      </trkpt>
      <trkpt lat="43.68258" lon="3.11347">
        <ele>340.37351982064</ele>
        <time>2017-11-25T11:54:19Z</time>
      </trkpt>
      <trkpt lat="43.68282" lon="3.11392">
        <ele>340.39027167089</ele>
        <time>2017-11-25T11:55:05Z</time>
      </trkpt>
      <trkpt lat="43.68283" lon="3.11398">
        <ele>340.39027167089</ele>
        <time>2017-11-25T11:55:08Z</time>
      </trkpt>
      <trkpt lat="43.68294" lon="3.11411">
        <ele>340.41572633953</ele>
        <time>2017-11-25T11:55:17Z</time>
      </trkpt>
      <trkpt lat="43.68333" lon="3.11443">
        <ele>341.0156201623</ele>
        <time>2017-11-25T11:56:08Z</time>
      </trkpt>
      <trkpt lat="43.6834" lon="3.1145">
        <ele>341.0156201623</ele>
        <time>2017-11-25T11:56:08Z</time>
      </trkpt>
      <trkpt lat="43.68351" lon="3.11458">
        <ele>341.80225053568</ele>
        <time>2017-11-25T11:56:25Z</time>
      </trkpt>
      <trkpt lat="43.68402" lon="3.11493">
        <ele>343.4265997489</ele>
        <time>2017-11-25T11:57:16Z</time>
      </trkpt>
      <trkpt lat="43.68404" lon="3.11496">
        <ele>343.4265997489</ele>
        <time>2017-11-25T11:57:16Z</time>
      </trkpt>
      <trkpt lat="43.68404" lon="3.11495">
        <ele>343.4265997489</ele>
        <time>2017-11-25T11:57:28Z</time>
      </trkpt>
      <trkpt lat="43.68415" lon="3.11499">
        <ele>344.7307368119</ele>
        <time>2017-11-25T11:58:07Z</time>
      </trkpt>
      <trkpt lat="43.68424" lon="3.11504">
        <ele>345.81659841492</ele>
        <time>2017-11-25T11:58:07Z</time>
      </trkpt>
      <trkpt lat="43.68445" lon="3.11509">
        <ele>346.7587273845</ele>
        <time>2017-11-25T11:58:36Z</time>
      </trkpt>
      <trkpt lat="43.68446" lon="3.11509">
        <ele>346.7587273845</ele>
        <time>2017-11-25T11:58:41Z</time>
      </trkpt>
      <trkpt lat="43.68468" lon="3.11522">
        <ele>346.05504882885</ele>
        <time>2017-11-25T12:02:51Z</time>
      </trkpt>
      <trkpt lat="43.6848" lon="3.11515">
        <ele>345.45743297891</ele>
        <time>2017-11-25T12:04:23Z</time>
      </trkpt>
      <trkpt lat="43.68475" lon="3.11512">
        <ele>345.45743297891</ele>
        <time>2017-11-25T12:04:48Z</time>
      </trkpt>
      <trkpt lat="43.68446" lon="3.11508">
        <ele>344.88434859205</ele>
        <time>2017-11-25T12:05:49Z</time>
      </trkpt>
      <trkpt lat="43.68438" lon="3.11505">
        <ele>344.88434859205</ele>
        <time>2017-11-25T12:05:49Z</time>
      </trkpt>
      <trkpt lat="43.68438" lon="3.11506">
        <ele>344.88434859205</ele>
        <time>2017-11-25T12:05:50Z</time>
      </trkpt>
      <trkpt lat="43.68431" lon="3.11503">
        <ele>344.33554960672</ele>
        <time>2017-11-25T12:05:58Z</time>
      </trkpt>
      <trkpt lat="43.68431" lon="3.11502">
        <ele>344.33554960672</ele>
        <time>2017-11-25T12:06:05Z</time>
      </trkpt>
      <trkpt lat="43.68426" lon="3.11496">
        <ele>344.33554960672</ele>
        <time>2017-11-25T12:06:06Z</time>
      </trkpt>
      <trkpt lat="43.68414" lon="3.11487">
        <ele>343.79523434007</ele>
        <time>2017-11-25T12:06:16Z</time>
      </trkpt>
      <trkpt lat="43.68348" lon="3.11444">
        <ele>343.26281887548</ele>
        <time>2017-11-25T12:07:17Z</time>
      </trkpt>
      <trkpt lat="43.68347" lon="3.11444">
        <ele>343.26281887548</ele>
        <time>2017-11-25T12:07:25Z</time>
      </trkpt>
      <trkpt lat="43.68331" lon="3.11432">
        <ele>342.80785059613</ele>
        <time>2017-11-25T12:07:42Z</time>
      </trkpt>
      <trkpt lat="43.6832" lon="3.11424">
        <ele>342.29653899427</ele>
        <time>2017-11-25T12:07:42Z</time>
      </trkpt>
      <trkpt lat="43.68311" lon="3.11418">
        <ele>341.69142475826</ele>
        <time>2017-11-25T12:07:59Z</time>
      </trkpt>
      <trkpt lat="43.68301" lon="3.11413">
        <ele>341.05545494451</ele>
        <time>2017-11-25T12:07:59Z</time>
      </trkpt>
      <trkpt lat="43.68276" lon="3.11335">
        <ele>340.19679294431</ele>
        <time>2017-11-25T12:09:08Z</time>
      </trkpt>
      <trkpt lat="43.68279" lon="3.11327">
        <ele>340.19679294431</ele>
        <time>2017-11-25T12:09:08Z</time>
      </trkpt>
      <trkpt lat="43.68327" lon="3.11292">
        <ele>340.00676125804</ele>
        <time>2017-11-25T12:09:59Z</time>
      </trkpt>
      <trkpt lat="43.68328" lon="3.11291">
        <ele>340.00676125804</ele>
        <time>2017-11-25T12:09:59Z</time>
      </trkpt>
      <trkpt lat="43.68338" lon="3.11272">
        <ele>339.9119091846</ele>
        <time>2017-11-25T12:10:11Z</time>
      </trkpt>
      <trkpt lat="43.68342" lon="3.11269">
        <ele>339.9119091846</ele>
        <time>2017-11-25T12:10:16Z</time>
      </trkpt>
      <trkpt lat="43.68405" lon="3.11259">
        <ele>340.36780782055</ele>
        <time>2017-11-25T12:11:30Z</time>
      </trkpt>
      <trkpt lat="43.68408" lon="3.11259">
        <ele>340.36780782055</ele>
        <time>2017-11-25T12:11:30Z</time>
      </trkpt>
      <trkpt lat="43.68408" lon="3.11259">
        <ele>340.36780782055</ele>
        <time>2017-11-25T12:11:31Z</time>
      </trkpt>
      <trkpt lat="43.68425" lon="3.11256">
        <ele>340.96277874264</ele>
        <time>2017-11-25T12:12:00Z</time>
      </trkpt>
      <trkpt lat="43.68434" lon="3.11249">
        <ele>341.36507219452</ele>
        <time>2017-11-25T12:12:11Z</time>
      </trkpt>
      <trkpt lat="43.68435" lon="3.11247">
        <ele>341.36507219452</ele>
        <time>2017-11-25T12:12:16Z</time>
      </trkpt>
      <trkpt lat="43.68444" lon="3.11241">
        <ele>341.82789444898</ele>
        <time>2017-11-25T12:12:26Z</time>
      </trkpt>
      <trkpt lat="43.68448" lon="3.11236">
        <ele>341.82789444898</ele>
        <time>2017-11-25T12:12:31Z</time>
      </trkpt>
      <trkpt lat="43.68459" lon="3.11231">
        <ele>342.3771901426</ele>
        <time>2017-11-25T12:12:41Z</time>
      </trkpt>
      <trkpt lat="43.68461" lon="3.11229">
        <ele>342.3771901426</ele>
        <time>2017-11-25T12:12:46Z</time>
      </trkpt>
      <trkpt lat="43.68472" lon="3.1123">
        <ele>343.00858532616</ele>
        <time>2017-11-25T12:12:56Z</time>
      </trkpt>
      <trkpt lat="43.68474" lon="3.11228">
        <ele>343.00858532616</ele>
        <time>2017-11-25T12:13:02Z</time>
      </trkpt>
      <trkpt lat="43.68482" lon="3.11216">
        <ele>343.84779673358</ele>
        <time>2017-11-25T12:13:11Z</time>
      </trkpt>
      <trkpt lat="43.68515" lon="3.11191">
        <ele>344.85299484818</ele>
        <time>2017-11-25T12:13:49Z</time>
      </trkpt>
      <trkpt lat="43.68519" lon="3.11188">
        <ele>344.85299484818</ele>
        <time>2017-11-25T12:13:49Z</time>
      </trkpt>
      <trkpt lat="43.68535" lon="3.11172">
        <ele>345.92485844022</ele>
        <time>2017-11-25T12:14:28Z</time>
      </trkpt>
      <trkpt lat="43.68537" lon="3.11172">
        <ele>345.92485844022</ele>
        <time>2017-11-25T12:14:31Z</time>
      </trkpt>
      <trkpt lat="43.6855" lon="3.11174">
        <ele>347.02779048292</ele>
        <time>2017-11-25T12:15:11Z</time>
      </trkpt>
      <trkpt lat="43.68559" lon="3.11176">
        <ele>348.11306393953</ele>
        <time>2017-11-25T12:15:11Z</time>
      </trkpt>
      <trkpt lat="43.6856" lon="3.11177">
        <ele>348.11306393953</ele>
        <time>2017-11-25T12:15:12Z</time>
      </trkpt>
      <trkpt lat="43.68569" lon="3.11177">
        <ele>349.16462627265</ele>
        <time>2017-11-25T12:15:24Z</time>
      </trkpt>
      <trkpt lat="43.68606" lon="3.11188">
        <ele>350.75098086369</ele>
        <time>2017-11-25T12:15:55Z</time>
      </trkpt>
      <trkpt lat="43.68612" lon="3.1119">
        <ele>350.75098086369</ele>
        <time>2017-11-25T12:16:00Z</time>
      </trkpt>
      <trkpt lat="43.68695" lon="3.11184">
        <ele>352.86180096657</ele>
        <time>2017-11-25T12:17:34Z</time>
      </trkpt>
      <trkpt lat="43.68695" lon="3.11183">
        <ele>352.86180096657</ele>
        <time>2017-11-25T12:17:34Z</time>
      </trkpt>
      <trkpt lat="43.68718" lon="3.11168">
        <ele>354.83734309995</ele>
        <time>2017-11-25T12:18:04Z</time>
      </trkpt>
      <trkpt lat="43.68747" lon="3.11151">
        <ele>356.78690056066</ele>
        <time>2017-11-25T12:18:37Z</time>
      </trkpt>
      <trkpt lat="43.6875" lon="3.11148">
        <ele>356.78690056066</ele>
        <time>2017-11-25T12:18:41Z</time>
      </trkpt>
      <trkpt lat="43.68755" lon="3.11146">
        <ele>358.676816686</ele>
        <time>2017-11-25T12:18:46Z</time>
      </trkpt>
      <trkpt lat="43.68761" lon="3.11142">
        <ele>358.676816686</ele>
        <time>2017-11-25T12:18:58Z</time>
      </trkpt>
      <trkpt lat="43.6878" lon="3.11124">
        <ele>360.52183460522</ele>
        <time>2017-11-25T12:19:08Z</time>
      </trkpt>
      <trkpt lat="43.68784" lon="3.11124">
        <ele>360.52183460522</ele>
        <time>2017-11-25T12:19:24Z</time>
      </trkpt>
      <trkpt lat="43.6879" lon="3.11118">
        <ele>362.45692277116</ele>
        <time>2017-11-25T12:19:24Z</time>
      </trkpt>
      <trkpt lat="43.68819" lon="3.11104">
        <ele>364.24439692987</ele>
        <time>2017-11-25T12:19:57Z</time>
      </trkpt>
      <trkpt lat="43.68821" lon="3.11104">
        <ele>364.24439692987</ele>
        <time>2017-11-25T12:19:57Z</time>
      </trkpt>
      <trkpt lat="43.68848" lon="3.11092">
        <ele>365.2592147717</ele>
        <time>2017-11-25T12:20:50Z</time>
      </trkpt>
      <trkpt lat="43.68864" lon="3.11087">
        <ele>366.10417391691</ele>
        <time>2017-11-25T12:21:03Z</time>
      </trkpt>
      <trkpt lat="43.68903" lon="3.11069">
        <ele>367.03344681589</ele>
        <time>2017-11-25T12:21:49Z</time>
      </trkpt>
      <trkpt lat="43.68904" lon="3.11067">
        <ele>367.03344681589</ele>
        <time>2017-11-25T12:21:49Z</time>
      </trkpt>
      <trkpt lat="43.6891" lon="3.11064">
        <ele>367.03344681589</ele>
        <time>2017-11-25T12:22:00Z</time>
      </trkpt>
      <trkpt lat="43.68919" lon="3.11065">
        <ele>367.87505709431</ele>
        <time>2017-11-25T12:22:03Z</time>
      </trkpt>
      <trkpt lat="43.68945" lon="3.11056">
        <ele>368.89065781222</ele>
        <time>2017-11-25T12:22:26Z</time>
      </trkpt>
      <trkpt lat="43.68958" lon="3.11052">
        <ele>369.88645344014</ele>
        <time>2017-11-25T12:22:40Z</time>
      </trkpt>
      <trkpt lat="43.68959" lon="3.11052">
        <ele>369.88645344014</ele>
        <time>2017-11-25T12:22:40Z</time>
      </trkpt>
      <trkpt lat="43.6896" lon="3.11052">
        <ele>369.88645344014</ele>
        <time>2017-11-25T12:22:42Z</time>
      </trkpt>
      <trkpt lat="43.68965" lon="3.11049">
        <ele>369.88645344014</ele>
        <time>2017-11-25T12:22:46Z</time>
      </trkpt>
      <trkpt lat="43.69073" lon="3.11052">
        <ele>370.92330380736</ele>
        <time>2017-11-25T12:24:37Z</time>
      </trkpt>
      <trkpt lat="43.69082" lon="3.11048">
        <ele>371.47742807809</ele>
        <time>2017-11-25T12:25:17Z</time>
      </trkpt>
      <trkpt lat="43.69124" lon="3.11025">
        <ele>372.74518473779</ele>
        <time>2017-11-25T12:26:03Z</time>
      </trkpt>
      <trkpt lat="43.69155" lon="3.10988">
        <ele>374.54902956146</ele>
        <time>2017-11-25T12:26:42Z</time>
      </trkpt>
      <trkpt lat="43.69157" lon="3.10984">
        <ele>374.54902956146</ele>
        <time>2017-11-25T12:26:46Z</time>
      </trkpt>
      <trkpt lat="43.69165" lon="3.10976">
        <ele>376.22357373353</ele>
        <time>2017-11-25T12:27:06Z</time>
      </trkpt>
      <trkpt lat="43.69169" lon="3.1097">
        <ele>376.22357373353</ele>
        <time>2017-11-25T12:27:06Z</time>
      </trkpt>
      <trkpt lat="43.69174" lon="3.10958">
        <ele>378.02741166037</ele>
        <time>2017-11-25T12:27:23Z</time>
      </trkpt>
      <trkpt lat="43.69176" lon="3.10954">
        <ele>378.02741166037</ele>
        <time>2017-11-25T12:27:23Z</time>
      </trkpt>
      <trkpt lat="43.6922" lon="3.10916">
        <ele>380.40288439309</ele>
        <time>2017-11-25T12:28:21Z</time>
      </trkpt>
      <trkpt lat="43.69233" lon="3.109">
        <ele>382.39234426968</ele>
        <time>2017-11-25T12:28:35Z</time>
      </trkpt>
      <trkpt lat="43.69234" lon="3.109">
        <ele>382.39234426968</ele>
        <time>2017-11-25T12:28:36Z</time>
      </trkpt>
      <trkpt lat="43.69237" lon="3.10897">
        <ele>382.39234426968</ele>
        <time>2017-11-25T12:28:41Z</time>
      </trkpt>
      <trkpt lat="43.69249" lon="3.10892">
        <ele>383.01536590594</ele>
        <time>2017-11-25T12:28:56Z</time>
      </trkpt>
      <trkpt lat="43.69253" lon="3.10887">
        <ele>383.01536590594</ele>
        <time>2017-11-25T12:29:06Z</time>
      </trkpt>
      <trkpt lat="43.69257" lon="3.10883">
        <ele>382.99396813151</ele>
        <time>2017-11-25T12:29:11Z</time>
      </trkpt>
      <trkpt lat="43.69263" lon="3.1088">
        <ele>382.99396813151</ele>
        <time>2017-11-25T12:29:16Z</time>
      </trkpt>
      <trkpt lat="43.69266" lon="3.10878">
        <ele>382.52706821596</ele>
        <time>2017-11-25T12:29:21Z</time>
      </trkpt>
      <trkpt lat="43.69268" lon="3.10876">
        <ele>382.52706821596</ele>
        <time>2017-11-25T12:29:26Z</time>
      </trkpt>
      <trkpt lat="43.6927" lon="3.10875">
        <ele>382.52706821596</ele>
        <time>2017-11-25T12:29:31Z</time>
      </trkpt>
      <trkpt lat="43.69273" lon="3.10877">
        <ele>382.52706821596</ele>
        <time>2017-11-25T12:29:36Z</time>
      </trkpt>
      <trkpt lat="43.69273" lon="3.10877">
        <ele>382.52706821596</ele>
        <time>2017-11-25T12:29:41Z</time>
      </trkpt>
      <trkpt lat="43.69278" lon="3.10874">
        <ele>382.0603619302</ele>
        <time>2017-11-25T12:29:51Z</time>
      </trkpt>
      <trkpt lat="43.69282" lon="3.10872">
        <ele>382.0603619302</ele>
        <time>2017-11-25T12:29:56Z</time>
      </trkpt>
      <trkpt lat="43.69302" lon="3.10863">
        <ele>381.51035722176</ele>
        <time>2017-11-25T12:30:13Z</time>
      </trkpt>
      <trkpt lat="43.69306" lon="3.10861">
        <ele>381.51035722176</ele>
        <time>2017-11-25T12:30:17Z</time>
      </trkpt>
      <trkpt lat="43.69322" lon="3.10868">
        <ele>380.97442903508</ele>
        <time>2017-11-25T12:30:40Z</time>
      </trkpt>
      <trkpt lat="43.69323" lon="3.10869">
        <ele>380.97442903508</ele>
        <time>2017-11-25T12:30:41Z</time>
      </trkpt>
      <trkpt lat="43.69343" lon="3.1086">
        <ele>380.35399756743</ele>
        <time>2017-11-25T12:31:08Z</time>
      </trkpt>
      <trkpt lat="43.69352" lon="3.10856">
        <ele>379.83336793621</ele>
        <time>2017-11-25T12:31:11Z</time>
      </trkpt>
      <trkpt lat="43.69357" lon="3.10852">
        <ele>379.83336793621</ele>
        <time>2017-11-25T12:31:16Z</time>
      </trkpt>
      <trkpt lat="43.6936" lon="3.10849">
        <ele>379.09073359942</ele>
        <time>2017-11-25T12:31:21Z</time>
      </trkpt>
      <trkpt lat="43.6937" lon="3.10844">
        <ele>378.14740637532</ele>
        <time>2017-11-25T12:31:31Z</time>
      </trkpt>
      <trkpt lat="43.69374" lon="3.10842">
        <ele>378.14740637532</ele>
        <time>2017-11-25T12:31:36Z</time>
      </trkpt>
      <trkpt lat="43.69378" lon="3.10839">
        <ele>378.14740637532</ele>
        <time>2017-11-25T12:31:42Z</time>
      </trkpt>
      <trkpt lat="43.69395" lon="3.10829">
        <ele>376.96576493312</ele>
        <time>2017-11-25T12:32:02Z</time>
      </trkpt>
      <trkpt lat="43.69407" lon="3.10816">
        <ele>375.85804520679</ele>
        <time>2017-11-25T12:32:27Z</time>
      </trkpt>
      <trkpt lat="43.69423" lon="3.1078">
        <ele>374.8674604516</ele>
        <time>2017-11-25T12:32:44Z</time>
      </trkpt>
      <trkpt lat="43.69426" lon="3.10776">
        <ele>374.8674604516</ele>
        <time>2017-11-25T12:32:44Z</time>
      </trkpt>
      <trkpt lat="43.69437" lon="3.10757">
        <ele>374.00482098243</ele>
        <time>2017-11-25T12:33:04Z</time>
      </trkpt>
      <trkpt lat="43.69484" lon="3.10717">
        <ele>373.61148603106</ele>
        <time>2017-11-25T12:34:00Z</time>
      </trkpt>
      <trkpt lat="43.69488" lon="3.10714">
        <ele>373.61148603106</ele>
        <time>2017-11-25T12:34:02Z</time>
      </trkpt>
      <trkpt lat="43.69512" lon="3.10699">
        <ele>373.80030364644</ele>
        <time>2017-11-25T12:34:31Z</time>
      </trkpt>
      <trkpt lat="43.69525" lon="3.10693">
        <ele>374.0974351038</ele>
        <time>2017-11-25T12:34:51Z</time>
      </trkpt>
      <trkpt lat="43.69528" lon="3.10691">
        <ele>374.0974351038</ele>
        <time>2017-11-25T12:34:51Z</time>
      </trkpt>
      <trkpt lat="43.69549" lon="3.10676">
        <ele>374.59714413828</ele>
        <time>2017-11-25T12:35:16Z</time>
      </trkpt>
      <trkpt lat="43.69594" lon="3.1066">
        <ele>374.9103256967</ele>
        <time>2017-11-25T12:36:07Z</time>
      </trkpt>
      <trkpt lat="43.69594" lon="3.1066">
        <ele>374.9103256967</ele>
        <time>2017-11-25T12:36:07Z</time>
      </trkpt>
      <trkpt lat="43.69597" lon="3.10666">
        <ele>374.9103256967</ele>
        <time>2017-11-25T12:36:46Z</time>
      </trkpt>
      <trkpt lat="43.69615" lon="3.10659">
        <ele>375.00851851953</ele>
        <time>2017-11-25T12:37:14Z</time>
      </trkpt>
      <trkpt lat="43.6962" lon="3.10659">
        <ele>375.00851851953</ele>
        <time>2017-11-25T12:37:18Z</time>
      </trkpt>
      <trkpt lat="43.69633" lon="3.10662">
        <ele>375.37047182053</ele>
        <time>2017-11-25T12:37:33Z</time>
      </trkpt>
      <trkpt lat="43.69644" lon="3.10651">
        <ele>375.90548171318</ele>
        <time>2017-11-25T12:37:35Z</time>
      </trkpt>
      <trkpt lat="43.69649" lon="3.10646">
        <ele>375.90548171318</ele>
        <time>2017-11-25T12:37:43Z</time>
      </trkpt>
      <trkpt lat="43.6965" lon="3.10645">
        <ele>375.90548171318</ele>
        <time>2017-11-25T12:37:52Z</time>
      </trkpt>
      <trkpt lat="43.69662" lon="3.10637">
        <ele>376.65870855048</ele>
        <time>2017-11-25T12:38:07Z</time>
      </trkpt>
      <trkpt lat="43.69677" lon="3.10623">
        <ele>377.48384733637</ele>
        <time>2017-11-25T12:38:17Z</time>
      </trkpt>
      <trkpt lat="43.69687" lon="3.10622">
        <ele>378.38925305823</ele>
        <time>2017-11-25T12:38:25Z</time>
      </trkpt>
      <trkpt lat="43.69697" lon="3.10623">
        <ele>379.3679529653</ele>
        <time>2017-11-25T12:38:38Z</time>
      </trkpt>
      <trkpt lat="43.697" lon="3.10622">
        <ele>379.3679529653</ele>
        <time>2017-11-25T12:38:41Z</time>
      </trkpt>
      <trkpt lat="43.6971" lon="3.10618">
        <ele>380.15361309457</ele>
        <time>2017-11-25T12:38:57Z</time>
      </trkpt>
      <trkpt lat="43.69744" lon="3.10587">
        <ele>381.52398200575</ele>
        <time>2017-11-25T12:39:26Z</time>
      </trkpt>
      <trkpt lat="43.69749" lon="3.10578">
        <ele>381.52398200575</ele>
        <time>2017-11-25T12:39:45Z</time>
      </trkpt>
      <trkpt lat="43.69755" lon="3.10569">
        <ele>382.71239874385</ele>
        <time>2017-11-25T12:39:46Z</time>
      </trkpt>
      <trkpt lat="43.69761" lon="3.1056">
        <ele>382.71239874385</ele>
        <time>2017-11-25T12:40:07Z</time>
      </trkpt>
      <trkpt lat="43.6977" lon="3.1052">
        <ele>384.4225244855</ele>
        <time>2017-11-25T12:41:01Z</time>
      </trkpt>
      <trkpt lat="43.69775" lon="3.10509">
        <ele>385.71816838808</ele>
        <time>2017-11-25T12:42:01Z</time>
      </trkpt>
      <trkpt lat="43.69794" lon="3.1049">
        <ele>386.91589228359</ele>
        <time>2017-11-25T12:42:34Z</time>
      </trkpt>
      <trkpt lat="43.69821" lon="3.10455">
        <ele>388.15060314849</ele>
        <time>2017-11-25T12:43:08Z</time>
      </trkpt>
      <trkpt lat="43.69824" lon="3.10453">
        <ele>388.15060314849</ele>
        <time>2017-11-25T12:43:11Z</time>
      </trkpt>
      <trkpt lat="43.69882" lon="3.1042">
        <ele>389.92221935435</ele>
        <time>2017-11-25T12:44:33Z</time>
      </trkpt>
      <trkpt lat="43.69888" lon="3.10413">
        <ele>389.92221935435</ele>
        <time>2017-11-25T12:44:33Z</time>
      </trkpt>
      <trkpt lat="43.69899" lon="3.10406">
        <ele>391.65385621836</ele>
        <time>2017-11-25T12:44:48Z</time>
      </trkpt>
      <trkpt lat="43.69903" lon="3.10401">
        <ele>391.65385621836</ele>
        <time>2017-11-25T12:44:51Z</time>
      </trkpt>
      <trkpt lat="43.69904" lon="3.10393">
        <ele>393.37373560769</ele>
        <time>2017-11-25T12:45:01Z</time>
      </trkpt>
      <trkpt lat="43.69906" lon="3.1039">
        <ele>393.37373560769</ele>
        <time>2017-11-25T12:45:06Z</time>
      </trkpt>
      <trkpt lat="43.69911" lon="3.10384">
        <ele>394.89172554077</ele>
        <time>2017-11-25T12:45:11Z</time>
      </trkpt>
      <trkpt lat="43.69912" lon="3.10382">
        <ele>394.89172554077</ele>
        <time>2017-11-25T12:45:16Z</time>
      </trkpt>
      <trkpt lat="43.69912" lon="3.10375">
        <ele>394.89172554077</ele>
        <time>2017-11-25T12:45:26Z</time>
      </trkpt>
      <trkpt lat="43.6994" lon="3.10359">
        <ele>396.72458057798</ele>
        <time>2017-11-25T12:46:06Z</time>
      </trkpt>
      <trkpt lat="43.69952" lon="3.1035">
        <ele>398.61464800058</ele>
        <time>2017-11-25T12:46:06Z</time>
      </trkpt>
      <trkpt lat="43.69965" lon="3.10341">
        <ele>400.49620129187</ele>
        <time>2017-11-25T12:46:25Z</time>
      </trkpt>
      <trkpt lat="43.69972" lon="3.10332">
        <ele>402.36612383148</ele>
        <time>2017-11-25T12:46:25Z</time>
      </trkpt>
      <trkpt lat="43.69985" lon="3.10321">
        <ele>404.2360495651</ele>
        <time>2017-11-25T12:46:36Z</time>
      </trkpt>
      <trkpt lat="43.69987" lon="3.10318">
        <ele>404.2360495651</ele>
        <time>2017-11-25T12:46:44Z</time>
      </trkpt>
      <trkpt lat="43.70002" lon="3.10297">
        <ele>406.23218008242</ele>
        <time>2017-11-25T12:47:00Z</time>
      </trkpt>
      <trkpt lat="43.70003" lon="3.10297">
        <ele>406.23218008242</ele>
        <time>2017-11-25T12:47:01Z</time>
      </trkpt>
      <trkpt lat="43.70009" lon="3.10289">
        <ele>408.22603753131</ele>
        <time>2017-11-25T12:47:17Z</time>
      </trkpt>
      <trkpt lat="43.70026" lon="3.10281">
        <ele>410.28612564522</ele>
        <time>2017-11-25T12:47:26Z</time>
      </trkpt>
      <trkpt lat="43.70044" lon="3.10271">
        <ele>412.40372270346</ele>
        <time>2017-11-25T12:47:43Z</time>
      </trkpt>
      <trkpt lat="43.70048" lon="3.1027">
        <ele>412.40372270346</ele>
        <time>2017-11-25T12:47:43Z</time>
      </trkpt>
      <trkpt lat="43.70065" lon="3.10263">
        <ele>414.57068261586</ele>
        <time>2017-11-25T12:48:06Z</time>
      </trkpt>
      <trkpt lat="43.7007" lon="3.10261">
        <ele>414.57068261586</ele>
        <time>2017-11-25T12:48:06Z</time>
      </trkpt>
      <trkpt lat="43.70085" lon="3.10253">
        <ele>416.53435808601</ele>
        <time>2017-11-25T12:48:20Z</time>
      </trkpt>
      <trkpt lat="43.70088" lon="3.10251">
        <ele>416.53435808601</ele>
        <time>2017-11-25T12:48:20Z</time>
      </trkpt>
      <trkpt lat="43.70089" lon="3.10251">
        <ele>416.53435808601</ele>
        <time>2017-11-25T12:48:21Z</time>
      </trkpt>
      <trkpt lat="43.70125" lon="3.10224">
        <ele>418.34966898942</ele>
        <time>2017-11-25T12:49:00Z</time>
      </trkpt>
      <trkpt lat="43.70132" lon="3.10217">
        <ele>418.34966898942</ele>
        <time>2017-11-25T12:49:00Z</time>
      </trkpt>
      <trkpt lat="43.70139" lon="3.10213">
        <ele>419.88062359175</ele>
        <time>2017-11-25T12:49:08Z</time>
      </trkpt>
      <trkpt lat="43.70146" lon="3.1021">
        <ele>419.88062359175</ele>
        <time>2017-11-25T12:49:14Z</time>
      </trkpt>
      <trkpt lat="43.70177" lon="3.10181">
        <ele>421.20392865127</ele>
        <time>2017-11-25T12:49:46Z</time>
      </trkpt>
      <trkpt lat="43.70299" lon="3.1006">
        <ele>423.90472778759</ele>
        <time>2017-11-25T12:52:12Z</time>
      </trkpt>
      <trkpt lat="43.70309" lon="3.10047">
        <ele>426.30577428452</ele>
        <time>2017-11-25T12:52:26Z</time>
      </trkpt>
      <trkpt lat="43.70321" lon="3.10028">
        <ele>428.7566113043</ele>
        <time>2017-11-25T12:52:40Z</time>
      </trkpt>
      <trkpt lat="43.70364" lon="3.09988">
        <ele>431.43691978569</ele>
        <time>2017-11-25T12:53:26Z</time>
      </trkpt>
      <trkpt lat="43.70382" lon="3.09969">
        <ele>433.9938063133</ele>
        <time>2017-11-25T12:53:41Z</time>
      </trkpt>
      <trkpt lat="43.70394" lon="3.09936">
        <ele>436.41784680907</ele>
        <time>2017-11-25T12:54:10Z</time>
      </trkpt>
      <trkpt lat="43.70399" lon="3.09932">
        <ele>436.41784680907</ele>
        <time>2017-11-25T12:54:10Z</time>
      </trkpt>
      <trkpt lat="43.70406" lon="3.09923">
        <ele>438.35492029529</ele>
        <time>2017-11-25T12:54:19Z</time>
      </trkpt>
      <trkpt lat="43.70407" lon="3.09919">
        <ele>438.35492029529</ele>
        <time>2017-11-25T12:54:28Z</time>
      </trkpt>
      <trkpt lat="43.70408" lon="3.09908">
        <ele>440.09811273321</ele>
        <time>2017-11-25T12:54:33Z</time>
      </trkpt>
      <trkpt lat="43.70407" lon="3.09909">
        <ele>440.09811273321</ele>
        <time>2017-11-25T12:54:36Z</time>
      </trkpt>
      <trkpt lat="43.70405" lon="3.09902">
        <ele>440.09811273321</ele>
        <time>2017-11-25T12:54:57Z</time>
      </trkpt>
      <trkpt lat="43.70405" lon="3.09902">
        <ele>440.09811273321</ele>
        <time>2017-11-25T12:54:57Z</time>
      </trkpt>
      <trkpt lat="43.70412" lon="3.09886">
        <ele>441.2278803649</ele>
        <time>2017-11-25T12:55:06Z</time>
      </trkpt>
      <trkpt lat="43.70405" lon="3.09893">
        <ele>441.2278803649</ele>
        <time>2017-11-25T12:55:46Z</time>
      </trkpt>
      <trkpt lat="43.704" lon="3.09898">
        <ele>440.95381895484</ele>
        <time>2017-11-25T12:55:51Z</time>
      </trkpt>
      <trkpt lat="43.70397" lon="3.09902">
        <ele>440.95381895484</ele>
        <time>2017-11-25T12:55:56Z</time>
      </trkpt>
      <trkpt lat="43.70396" lon="3.09907">
        <ele>440.95381895484</ele>
        <time>2017-11-25T12:56:01Z</time>
      </trkpt>
      <trkpt lat="43.70391" lon="3.09913">
        <ele>440.56521352906</ele>
        <time>2017-11-25T12:56:06Z</time>
      </trkpt>
      <trkpt lat="43.70389" lon="3.09919">
        <ele>440.56521352906</ele>
        <time>2017-11-25T12:56:11Z</time>
      </trkpt>
      <trkpt lat="43.70382" lon="3.09925">
        <ele>440.01765447265</ele>
        <time>2017-11-25T12:56:16Z</time>
      </trkpt>
      <trkpt lat="43.70378" lon="3.09928">
        <ele>440.01765447265</ele>
        <time>2017-11-25T12:56:21Z</time>
      </trkpt>
      <trkpt lat="43.70374" lon="3.09931">
        <ele>439.37138356142</ele>
        <time>2017-11-25T12:56:31Z</time>
      </trkpt>
      <trkpt lat="43.70362" lon="3.09937">
        <ele>438.66812611169</ele>
        <time>2017-11-25T12:56:41Z</time>
      </trkpt>
      <trkpt lat="43.70343" lon="3.09947">
        <ele>437.93231440555</ele>
        <time>2017-11-25T12:57:06Z</time>
      </trkpt>
      <trkpt lat="43.7034" lon="3.09947">
        <ele>437.93231440555</ele>
        <time>2017-11-25T12:57:06Z</time>
      </trkpt>
      <trkpt lat="43.70299" lon="3.09984">
        <ele>437.3307945913</ele>
        <time>2017-11-25T12:58:01Z</time>
      </trkpt>
      <trkpt lat="43.70291" lon="3.09994">
        <ele>436.7007185546</ele>
        <time>2017-11-25T12:58:09Z</time>
      </trkpt>
      <trkpt lat="43.70283" lon="3.09998">
        <ele>436.06418659268</ele>
        <time>2017-11-25T12:58:20Z</time>
      </trkpt>
      <trkpt lat="43.70269" lon="3.10009">
        <ele>435.47047199459</ele>
        <time>2017-11-25T12:58:36Z</time>
      </trkpt>
      <trkpt lat="43.70261" lon="3.10027">
        <ele>434.97946234503</ele>
        <time>2017-11-25T12:59:22Z</time>
      </trkpt>
      <trkpt lat="43.70275" lon="3.10011">
        <ele>434.55982035359</ele>
        <time>2017-11-25T12:59:46Z</time>
      </trkpt>
      <trkpt lat="43.70296" lon="3.09973">
        <ele>434.28311102821</ele>
        <time>2017-11-25T13:00:15Z</time>
      </trkpt>
      <trkpt lat="43.70331" lon="3.09921">
        <ele>434.1286854064</ele>
        <time>2017-11-25T13:01:10Z</time>
      </trkpt>
      <trkpt lat="43.70337" lon="3.09913">
        <ele>434.1286854064</ele>
        <time>2017-11-25T13:01:11Z</time>
      </trkpt>
      <trkpt lat="43.7035" lon="3.09888">
        <ele>433.84639074074</ele>
        <time>2017-11-25T13:01:31Z</time>
      </trkpt>
      <trkpt lat="43.7037" lon="3.09856">
        <ele>433.66587636521</ele>
        <time>2017-11-25T13:01:43Z</time>
      </trkpt>
      <trkpt lat="43.70366" lon="3.09846">
        <ele>433.66587636521</ele>
        <time>2017-11-25T13:02:11Z</time>
      </trkpt>
      <trkpt lat="43.70372" lon="3.09833">
        <ele>434.04452894112</ele>
        <time>2017-11-25T13:02:11Z</time>
      </trkpt>
      <trkpt lat="43.70359" lon="3.09753">
        <ele>435.41887540236</ele>
        <time>2017-11-25T13:03:05Z</time>
      </trkpt>
      <trkpt lat="43.70347" lon="3.09719">
        <ele>437.64284610076</ele>
        <time>2017-11-25T13:03:37Z</time>
      </trkpt>
      <trkpt lat="43.7034" lon="3.09709">
        <ele>439.74276151559</ele>
        <time>2017-11-25T13:03:38Z</time>
      </trkpt>
      <trkpt lat="43.70327" lon="3.09712">
        <ele>442.38759275724</ele>
        <time>2017-11-25T13:04:17Z</time>
      </trkpt>
      <trkpt lat="43.70334" lon="3.09716">
        <ele>442.38759275724</ele>
        <time>2017-11-25T13:04:17Z</time>
      </trkpt>
      <trkpt lat="43.70379" lon="3.09665">
        <ele>446.23881346851</ele>
        <time>2017-11-25T13:05:19Z</time>
      </trkpt>
      <trkpt lat="43.70376" lon="3.09619">
        <ele>450.09003731721</ele>
        <time>2017-11-25T13:05:46Z</time>
      </trkpt>
      <trkpt lat="43.70365" lon="3.09603">
        <ele>454.27904457521</ele>
        <time>2017-11-25T13:06:04Z</time>
      </trkpt>
      <trkpt lat="43.70365" lon="3.09579">
        <ele>458.44052670458</ele>
        <time>2017-11-25T13:06:30Z</time>
      </trkpt>
      <trkpt lat="43.70359" lon="3.09576">
        <ele>458.44052670458</ele>
        <time>2017-11-25T13:06:31Z</time>
      </trkpt>
      <trkpt lat="43.70378" lon="3.09547">
        <ele>462.27935926057</ele>
        <time>2017-11-25T13:06:47Z</time>
      </trkpt>
      <trkpt lat="43.70388" lon="3.09521">
        <ele>466.04187224925</ele>
        <time>2017-11-25T13:07:04Z</time>
      </trkpt>
      <trkpt lat="43.70359" lon="3.09483">
        <ele>470.05747162924</ele>
        <time>2017-11-25T13:07:53Z</time>
      </trkpt>
      <trkpt lat="43.70344" lon="3.09412">
        <ele>473.9966518885</ele>
        <time>2017-11-25T13:08:58Z</time>
      </trkpt>
      <trkpt lat="43.70351" lon="3.09382">
        <ele>477.54003125614</ele>
        <time>2017-11-25T13:09:18Z</time>
      </trkpt>
      <trkpt lat="43.70327" lon="3.09343">
        <ele>481.22878491321</ele>
        <time>2017-11-25T13:09:57Z</time>
      </trkpt>
      <trkpt lat="43.70318" lon="3.0933">
        <ele>484.46880474937</ele>
        <time>2017-11-25T13:09:57Z</time>
      </trkpt>
      <trkpt lat="43.70346" lon="3.09282">
        <ele>488.3827435647</ele>
        <time>2017-11-25T13:10:37Z</time>
      </trkpt>
      <trkpt lat="43.70347" lon="3.09276">
        <ele>488.3827435647</ele>
        <time>2017-11-25T13:10:42Z</time>
      </trkpt>
      <trkpt lat="43.70327" lon="3.09256">
        <ele>492.29410892001</ele>
        <time>2017-11-25T13:11:05Z</time>
      </trkpt>
      <trkpt lat="43.70296" lon="3.09242">
        <ele>495.85009321394</ele>
        <time>2017-11-25T13:11:31Z</time>
      </trkpt>
      <trkpt lat="43.70277" lon="3.09208">
        <ele>499.71935157997</ele>
        <time>2017-11-25T13:12:06Z</time>
      </trkpt>
      <trkpt lat="43.70274" lon="3.09201">
        <ele>499.71935157997</ele>
        <time>2017-11-25T13:12:19Z</time>
      </trkpt>
      <trkpt lat="43.70283" lon="3.09179">
        <ele>503.71369231048</ele>
        <time>2017-11-25T13:12:39Z</time>
      </trkpt>
      <trkpt lat="43.70281" lon="3.09168">
        <ele>503.71369231048</ele>
        <time>2017-11-25T13:12:39Z</time>
      </trkpt>
      <trkpt lat="43.70265" lon="3.09098">
        <ele>507.47123917414</ele>
        <time>2017-11-25T13:13:37Z</time>
      </trkpt>
      <trkpt lat="43.7026" lon="3.09067">
        <ele>511.34929250109</ele>
        <time>2017-11-25T13:13:59Z</time>
      </trkpt>
      <trkpt lat="43.70219" lon="3.0906">
        <ele>515.1455492559</ele>
        <time>2017-11-25T13:14:26Z</time>
      </trkpt>
      <trkpt lat="43.70219" lon="3.0906">
        <ele>515.1455492559</ele>
        <time>2017-11-25T13:14:27Z</time>
      </trkpt>
      <trkpt lat="43.70212" lon="3.09064">
        <ele>515.1455492559</ele>
        <time>2017-11-25T13:14:31Z</time>
      </trkpt>
      <trkpt lat="43.70211" lon="3.09066">
        <ele>518.54329543758</ele>
        <time>2017-11-25T13:14:42Z</time>
      </trkpt>
      <trkpt lat="43.70219" lon="3.09062">
        <ele>518.54329543758</ele>
        <time>2017-11-25T13:15:05Z</time>
      </trkpt>
      <trkpt lat="43.70238" lon="3.09044">
        <ele>521.65391213939</ele>
        <time>2017-11-25T13:15:21Z</time>
      </trkpt>
      <trkpt lat="43.70276" lon="3.09035">
        <ele>524.48072256041</ele>
        <time>2017-11-25T13:16:14Z</time>
      </trkpt>
      <trkpt lat="43.70282" lon="3.0904">
        <ele>524.48072256041</ele>
        <time>2017-11-25T13:16:33Z</time>
      </trkpt>
      <trkpt lat="43.70289" lon="3.09043">
        <ele>526.92691594365</ele>
        <time>2017-11-25T13:16:33Z</time>
      </trkpt>
      <trkpt lat="43.70299" lon="3.09045">
        <ele>529.01933414707</ele>
        <time>2017-11-25T13:16:41Z</time>
      </trkpt>
      <trkpt lat="43.7032" lon="3.09045">
        <ele>530.78401305255</ele>
        <time>2017-11-25T13:17:06Z</time>
      </trkpt>
      <trkpt lat="43.70327" lon="3.09046">
        <ele>530.78401305255</ele>
        <time>2017-11-25T13:17:07Z</time>
      </trkpt>
      <trkpt lat="43.7038" lon="3.09036">
        <ele>534.50870609489</ele>
        <time>2017-11-25T13:18:13Z</time>
      </trkpt>
      <trkpt lat="43.70387" lon="3.08993">
        <ele>537.26387126067</ele>
        <time>2017-11-25T13:18:31Z</time>
      </trkpt>
      <trkpt lat="43.70397" lon="3.08967">
        <ele>539.56612669857</ele>
        <time>2017-11-25T13:18:54Z</time>
      </trkpt>
      <trkpt lat="43.70395" lon="3.08956">
        <ele>539.56612669857</ele>
        <time>2017-11-25T13:18:54Z</time>
      </trkpt>
      <trkpt lat="43.70367" lon="3.08809">
        <ele>542.16935968052</ele>
        <time>2017-11-25T13:20:47Z</time>
      </trkpt>
      <trkpt lat="43.70354" lon="3.08808">
        <ele>544.51759604155</ele>
        <time>2017-11-25T13:20:51Z</time>
      </trkpt>
      <trkpt lat="43.70348" lon="3.08807">
        <ele>544.51759604155</ele>
        <time>2017-11-25T13:20:56Z</time>
      </trkpt>
      <trkpt lat="43.70343" lon="3.088">
        <ele>547.4079529126</ele>
        <time>2017-11-25T13:21:11Z</time>
      </trkpt>
      <trkpt lat="43.70341" lon="3.08796">
        <ele>547.4079529126</ele>
        <time>2017-11-25T13:21:20Z</time>
      </trkpt>
      <trkpt lat="43.70343" lon="3.08784">
        <ele>550.05000627575</ele>
        <time>2017-11-25T13:21:21Z</time>
      </trkpt>
      <trkpt lat="43.70357" lon="3.08758">
        <ele>552.37511070523</ele>
        <time>2017-11-25T13:21:42Z</time>
      </trkpt>
      <trkpt lat="43.7036" lon="3.08754">
        <ele>552.37511070523</ele>
        <time>2017-11-25T13:22:00Z</time>
      </trkpt>
      <trkpt lat="43.70353" lon="3.08726">
        <ele>554.5800512041</ele>
        <time>2017-11-25T13:22:17Z</time>
      </trkpt>
      <trkpt lat="43.70356" lon="3.08712">
        <ele>556.40083898539</ele>
        <time>2017-11-25T13:22:26Z</time>
      </trkpt>
      <trkpt lat="43.70363" lon="3.08707">
        <ele>556.40083898539</ele>
        <time>2017-11-25T13:22:31Z</time>
      </trkpt>
      <trkpt lat="43.70374" lon="3.08693">
        <ele>557.83902318384</ele>
        <time>2017-11-25T13:22:50Z</time>
      </trkpt>
      <trkpt lat="43.70378" lon="3.08649">
        <ele>559.53126883726</ele>
        <time>2017-11-25T13:23:18Z</time>
      </trkpt>
      <trkpt lat="43.70349" lon="3.08624">
        <ele>561.38949120509</ele>
        <time>2017-11-25T13:23:51Z</time>
      </trkpt>
      <trkpt lat="43.70354" lon="3.08617">
        <ele>561.38949120509</ele>
        <time>2017-11-25T13:23:51Z</time>
      </trkpt>
      <trkpt lat="43.70311" lon="3.08537">
        <ele>563.95133294711</ele>
        <time>2017-11-25T13:25:36Z</time>
      </trkpt>
      <trkpt lat="43.70298" lon="3.0854">
        <ele>566.15660103173</ele>
        <time>2017-11-25T13:25:57Z</time>
      </trkpt>
      <trkpt lat="43.70323" lon="3.08547">
        <ele>568.07602294541</ele>
        <time>2017-11-25T13:26:26Z</time>
      </trkpt>
      <trkpt lat="43.7033" lon="3.08544">
        <ele>568.07602294541</ele>
        <time>2017-11-25T13:26:34Z</time>
      </trkpt>
      <trkpt lat="43.70376" lon="3.0851">
        <ele>569.40126247929</ele>
        <time>2017-11-25T13:27:02Z</time>
      </trkpt>
      <trkpt lat="43.70376" lon="3.08504">
        <ele>569.40126247929</ele>
        <time>2017-11-25T13:27:10Z</time>
      </trkpt>
      <trkpt lat="43.70431" lon="3.08441">
        <ele>570.05006609028</ele>
        <time>2017-11-25T13:27:56Z</time>
      </trkpt>
      <trkpt lat="43.70433" lon="3.08416">
        <ele>570.26516206697</ele>
        <time>2017-11-25T13:28:11Z</time>
      </trkpt>
      <trkpt lat="43.70481" lon="3.08329">
        <ele>571.15172643832</ele>
        <time>2017-11-25T13:29:23Z</time>
      </trkpt>
      <trkpt lat="43.70469" lon="3.08298">
        <ele>572.69423385711</ele>
        <time>2017-11-25T13:29:43Z</time>
      </trkpt>
      <trkpt lat="43.70479" lon="3.0829">
        <ele>574.0982149738</ele>
        <time>2017-11-25T13:29:51Z</time>
      </trkpt>
      <trkpt lat="43.70489" lon="3.08259">
        <ele>575.8960769986</ele>
        <time>2017-11-25T13:30:21Z</time>
      </trkpt>
      <trkpt lat="43.70487" lon="3.08256">
        <ele>575.8960769986</ele>
        <time>2017-11-25T13:30:21Z</time>
      </trkpt>
      <trkpt lat="43.70492" lon="3.08247">
        <ele>577.62881937444</ele>
        <time>2017-11-25T13:30:26Z</time>
      </trkpt>
      <trkpt lat="43.70456" lon="3.08242">
        <ele>579.92329338332</ele>
        <time>2017-11-25T13:31:13Z</time>
      </trkpt>
      <trkpt lat="43.704" lon="3.08275">
        <ele>583.86305637657</ele>
        <time>2017-11-25T13:31:36Z</time>
      </trkpt>
      <trkpt lat="43.70355" lon="3.08372">
        <ele>590.18800270065</ele>
        <time>2017-11-25T13:32:44Z</time>
      </trkpt>
      <trkpt lat="43.70355" lon="3.08373">
        <ele>590.18800270065</ele>
        <time>2017-11-25T13:32:45Z</time>
      </trkpt>
      <trkpt lat="43.70344" lon="3.08396">
        <ele>596.30562493378</ele>
        <time>2017-11-25T13:33:09Z</time>
      </trkpt>
      <trkpt lat="43.7034" lon="3.08409">
        <ele>602.13462263203</ele>
        <time>2017-11-25T13:33:09Z</time>
      </trkpt>
      <trkpt lat="43.70336" lon="3.08425">
        <ele>608.07606243064</ele>
        <time>2017-11-25T13:33:33Z</time>
      </trkpt>
      <trkpt lat="43.70324" lon="3.08441">
        <ele>614.16982404388</ele>
        <time>2017-11-25T13:33:44Z</time>
      </trkpt>
      <trkpt lat="43.70323" lon="3.08442">
        <ele>614.16982404388</ele>
        <time>2017-11-25T13:33:54Z</time>
      </trkpt>
      <trkpt lat="43.70301" lon="3.0845">
        <ele>620.03457961501</ele>
        <time>2017-11-25T13:34:02Z</time>
      </trkpt>
      <trkpt lat="43.70272" lon="3.0847">
        <ele>625.47627228228</ele>
        <time>2017-11-25T13:35:13Z</time>
      </trkpt>
      <trkpt lat="43.7022" lon="3.08462">
        <ele>630.84961241596</ele>
        <time>2017-11-25T13:35:56Z</time>
      </trkpt>
      <trkpt lat="43.70205" lon="3.08485">
        <ele>635.99359696064</ele>
        <time>2017-11-25T13:36:12Z</time>
      </trkpt>
      <trkpt lat="43.70199" lon="3.08557">
        <ele>641.50921500435</ele>
        <time>2017-11-25T13:37:21Z</time>
      </trkpt>
      <trkpt lat="43.702" lon="3.08564">
        <ele>641.50921500435</ele>
        <time>2017-11-25T13:37:21Z</time>
      </trkpt>
      <trkpt lat="43.70172" lon="3.08621">
        <ele>647.4768532929</ele>
        <time>2017-11-25T13:38:22Z</time>
      </trkpt>
      <trkpt lat="43.70173" lon="3.08625">
        <ele>647.4768532929</ele>
        <time>2017-11-25T13:38:26Z</time>
      </trkpt>
      <trkpt lat="43.7018" lon="3.08648">
        <ele>652.9322910267</ele>
        <time>2017-11-25T13:38:40Z</time>
      </trkpt>
      <trkpt lat="43.70181" lon="3.08649">
        <ele>652.9322910267</ele>
        <time>2017-11-25T13:38:41Z</time>
      </trkpt>
      <trkpt lat="43.70187" lon="3.08671">
        <ele>657.80518447805</ele>
        <time>2017-11-25T13:39:01Z</time>
      </trkpt>
      <trkpt lat="43.70213" lon="3.08774">
        <ele>661.62866108104</ele>
        <time>2017-11-25T13:40:06Z</time>
      </trkpt>
      <trkpt lat="43.7021" lon="3.08779">
        <ele>661.62866108104</ele>
        <time>2017-11-25T13:40:15Z</time>
      </trkpt>
      <trkpt lat="43.70148" lon="3.08807">
        <ele>665.11174856113</ele>
        <time>2017-11-25T13:41:21Z</time>
      </trkpt>
      <trkpt lat="43.70125" lon="3.08814">
        <ele>668.5090110377</ele>
        <time>2017-11-25T13:42:00Z</time>
      </trkpt>
      <trkpt lat="43.70117" lon="3.08815">
        <ele>668.5090110377</ele>
        <time>2017-11-25T13:42:06Z</time>
      </trkpt>
      <trkpt lat="43.70109" lon="3.08811">
        <ele>671.68203325425</ele>
        <time>2017-11-25T13:42:11Z</time>
      </trkpt>
      <trkpt lat="43.70108" lon="3.08811">
        <ele>671.68203325425</ele>
        <time>2017-11-25T13:42:16Z</time>
      </trkpt>
      <trkpt lat="43.70092" lon="3.08811">
        <ele>674.93568864821</ele>
        <time>2017-11-25T13:42:26Z</time>
      </trkpt>
      <trkpt lat="43.70093" lon="3.08808">
        <ele>674.93568864821</ele>
        <time>2017-11-25T13:42:31Z</time>
      </trkpt>
      <trkpt lat="43.70101" lon="3.0881">
        <ele>678.50914254742</ele>
        <time>2017-11-25T13:42:46Z</time>
      </trkpt>
      <trkpt lat="43.70096" lon="3.08812">
        <ele>678.50914254742</ele>
        <time>2017-11-25T13:42:51Z</time>
      </trkpt>
      <trkpt lat="43.70091" lon="3.08814">
        <ele>681.64327424614</ele>
        <time>2017-11-25T13:42:56Z</time>
      </trkpt>
      <trkpt lat="43.70088" lon="3.08815">
        <ele>681.64327424614</ele>
        <time>2017-11-25T13:43:01Z</time>
      </trkpt>
      <trkpt lat="43.70085" lon="3.08816">
        <ele>681.64327424614</ele>
        <time>2017-11-25T13:43:06Z</time>
      </trkpt>
      <trkpt lat="43.7008" lon="3.08817">
        <ele>684.1692954121</ele>
        <time>2017-11-25T13:43:11Z</time>
      </trkpt>
      <trkpt lat="43.70077" lon="3.08818">
        <ele>684.1692954121</ele>
        <time>2017-11-25T13:43:28Z</time>
      </trkpt>
      <trkpt lat="43.70076" lon="3.08819">
        <ele>684.1692954121</ele>
        <time>2017-11-25T13:43:35Z</time>
      </trkpt>
      <trkpt lat="43.70071" lon="3.08821">
        <ele>686.14880018035</ele>
        <time>2017-11-25T13:43:36Z</time>
      </trkpt>
      <trkpt lat="43.70015" lon="3.08856">
        <ele>687.49637449016</ele>
        <time>2017-11-25T13:44:51Z</time>
      </trkpt>
      <trkpt lat="43.7001" lon="3.08862">
        <ele>687.49637449016</ele>
        <time>2017-11-25T13:44:56Z</time>
      </trkpt>
      <trkpt lat="43.69968" lon="3.08914">
        <ele>689.40290622951</ele>
        <time>2017-11-25T13:45:52Z</time>
      </trkpt>
      <trkpt lat="43.69966" lon="3.08943">
        <ele>691.34183426349</ele>
        <time>2017-11-25T13:46:16Z</time>
      </trkpt>
      <trkpt lat="43.69949" lon="3.08962">
        <ele>693.27197037482</ele>
        <time>2017-11-25T13:46:28Z</time>
      </trkpt>
      <trkpt lat="43.69947" lon="3.08963">
        <ele>693.27197037482</ele>
        <time>2017-11-25T13:46:37Z</time>
      </trkpt>
      <trkpt lat="43.69934" lon="3.08968">
        <ele>694.9966751295</ele>
        <time>2017-11-25T13:46:38Z</time>
      </trkpt>
      <trkpt lat="43.69903" lon="3.08976">
        <ele>696.53609070278</ele>
        <time>2017-11-25T13:46:56Z</time>
      </trkpt>
      <trkpt lat="43.69895" lon="3.08979">
        <ele>696.53609070278</ele>
        <time>2017-11-25T13:47:01Z</time>
      </trkpt>
      <trkpt lat="43.69874" lon="3.09041">
        <ele>699.13433534521</ele>
        <time>2017-11-25T13:47:43Z</time>
      </trkpt>
      <trkpt lat="43.69872" lon="3.0905">
        <ele>699.13433534521</ele>
        <time>2017-11-25T13:47:45Z</time>
      </trkpt>
      <trkpt lat="43.69895" lon="3.09135">
        <ele>702.91795656421</ele>
        <time>2017-11-25T13:48:40Z</time>
      </trkpt>
      <trkpt lat="43.69896" lon="3.09138">
        <ele>702.91795656421</ele>
        <time>2017-11-25T13:48:41Z</time>
      </trkpt>
      <trkpt lat="43.69902" lon="3.09165">
        <ele>706.40122102362</ele>
        <time>2017-11-25T13:49:01Z</time>
      </trkpt>
      <trkpt lat="43.6992" lon="3.0919">
        <ele>709.70710742638</ele>
        <time>2017-11-25T13:49:19Z</time>
      </trkpt>
      <trkpt lat="43.69963" lon="3.09259">
        <ele>712.86356423452</ele>
        <time>2017-11-25T13:50:16Z</time>
      </trkpt>
      <trkpt lat="43.69971" lon="3.09266">
        <ele>715.43572315735</ele>
        <time>2017-11-25T13:50:16Z</time>
      </trkpt>
      <trkpt lat="43.69989" lon="3.09289">
        <ele>717.33931476853</ele>
        <time>2017-11-25T13:50:40Z</time>
      </trkpt>
      <trkpt lat="43.70006" lon="3.09321">
        <ele>718.93043331237</ele>
        <time>2017-11-25T13:51:01Z</time>
      </trkpt>
      <trkpt lat="43.70016" lon="3.09338">
        <ele>720.02104595276</ele>
        <time>2017-11-25T13:51:23Z</time>
      </trkpt>
      <trkpt lat="43.70017" lon="3.09407">
        <ele>719.9194776108</ele>
        <time>2017-11-25T13:51:47Z</time>
      </trkpt>
      <trkpt lat="43.70021" lon="3.09427">
        <ele>720.04892208344</ele>
        <time>2017-11-25T13:52:04Z</time>
      </trkpt>
      <trkpt lat="43.70012" lon="3.09438">
        <ele>720.83379620318</ele>
        <time>2017-11-25T13:52:26Z</time>
      </trkpt>
      <trkpt lat="43.70017" lon="3.09441">
        <ele>720.83379620318</ele>
        <time>2017-11-25T13:52:26Z</time>
      </trkpt>
      <trkpt lat="43.70011" lon="3.09462">
        <ele>721.54132332061</ele>
        <time>2017-11-25T13:52:58Z</time>
      </trkpt>
      <trkpt lat="43.70012" lon="3.09465">
        <ele>721.54132332061</ele>
        <time>2017-11-25T13:53:02Z</time>
      </trkpt>
      <trkpt lat="43.6998" lon="3.09504">
        <ele>721.70881280866</ele>
        <time>2017-11-25T13:53:54Z</time>
      </trkpt>
      <trkpt lat="43.69966" lon="3.09513">
        <ele>721.87448138389</ele>
        <time>2017-11-25T13:54:06Z</time>
      </trkpt>
      <trkpt lat="43.69919" lon="3.09547">
        <ele>722.89713852861</ele>
        <time>2017-11-25T13:55:05Z</time>
      </trkpt>
      <trkpt lat="43.69911" lon="3.09548">
        <ele>722.89713852861</ele>
        <time>2017-11-25T13:55:06Z</time>
      </trkpt>
      <trkpt lat="43.69871" lon="3.09542">
        <ele>724.61880587806</ele>
        <time>2017-11-25T13:55:47Z</time>
      </trkpt>
      <trkpt lat="43.69855" lon="3.0954">
        <ele>726.25689141622</ele>
        <time>2017-11-25T13:56:05Z</time>
      </trkpt>
      <trkpt lat="43.69845" lon="3.09536">
        <ele>727.73485557523</ele>
        <time>2017-11-25T13:56:05Z</time>
      </trkpt>
      <trkpt lat="43.69825" lon="3.0952">
        <ele>729.21263778009</ele>
        <time>2017-11-25T13:56:29Z</time>
      </trkpt>
      <trkpt lat="43.69801" lon="3.09509">
        <ele>730.83825990601</ele>
        <time>2017-11-25T13:56:51Z</time>
      </trkpt>
      <trkpt lat="43.69799" lon="3.09507">
        <ele>730.83825990601</ele>
        <time>2017-11-25T13:56:55Z</time>
      </trkpt>
      <trkpt lat="43.69752" lon="3.09483">
        <ele>733.15180072304</ele>
        <time>2017-11-25T13:57:48Z</time>
      </trkpt>
      <trkpt lat="43.69741" lon="3.09474">
        <ele>735.29692825078</ele>
        <time>2017-11-25T13:57:49Z</time>
      </trkpt>
      <trkpt lat="43.69661" lon="3.09426">
        <ele>737.77753324221</ele>
        <time>2017-11-25T13:58:56Z</time>
      </trkpt>
      <trkpt lat="43.69658" lon="3.09421">
        <ele>737.77753324221</ele>
        <time>2017-11-25T13:59:11Z</time>
      </trkpt>
      <trkpt lat="43.69651" lon="3.09409">
        <ele>739.94974530057</ele>
        <time>2017-11-25T13:59:11Z</time>
      </trkpt>
      <trkpt lat="43.69611" lon="3.09391">
        <ele>741.77975005278</ele>
        <time>2017-11-25T13:59:57Z</time>
      </trkpt>
      <trkpt lat="43.69546" lon="3.094">
        <ele>743.75584327084</ele>
        <time>2017-11-25T14:00:51Z</time>
      </trkpt>
      <trkpt lat="43.69493" lon="3.09386">
        <ele>743.85119778029</ele>
        <time>2017-11-25T14:01:39Z</time>
      </trkpt>
      <trkpt lat="43.6949" lon="3.0941">
        <ele>743.37787641424</ele>
        <time>2017-11-25T14:02:08Z</time>
      </trkpt>
      <trkpt lat="43.69488" lon="3.09416">
        <ele>743.37787641424</ele>
        <time>2017-11-25T14:02:17Z</time>
      </trkpt>
      <trkpt lat="43.69484" lon="3.09421">
        <ele>742.54423725081</ele>
        <time>2017-11-25T14:02:17Z</time>
      </trkpt>
      <trkpt lat="43.69467" lon="3.09451">
        <ele>741.19832661049</ele>
        <time>2017-11-25T14:02:51Z</time>
      </trkpt>
      <trkpt lat="43.69457" lon="3.09477">
        <ele>739.63295837402</ele>
        <time>2017-11-25T14:03:08Z</time>
      </trkpt>
      <trkpt lat="43.69451" lon="3.09508">
        <ele>737.88929180874</ele>
        <time>2017-11-25T14:03:40Z</time>
      </trkpt>
      <trkpt lat="43.69458" lon="3.0954">
        <ele>736.04899619019</ele>
        <time>2017-11-25T14:04:08Z</time>
      </trkpt>
      <trkpt lat="43.69459" lon="3.09549">
        <ele>736.04899619019</ele>
        <time>2017-11-25T14:04:08Z</time>
      </trkpt>
      <trkpt lat="43.69414" lon="3.09626">
        <ele>733.1646041853</ele>
        <time>2017-11-25T14:05:24Z</time>
      </trkpt>
      <trkpt lat="43.69373" lon="3.09768">
        <ele>729.47059423506</ele>
        <time>2017-11-25T14:07:08Z</time>
      </trkpt>
      <trkpt lat="43.69359" lon="3.09789">
        <ele>725.87796356662</ele>
        <time>2017-11-25T14:07:30Z</time>
      </trkpt>
      <trkpt lat="43.69351" lon="3.09803">
        <ele>722.52407493311</ele>
        <time>2017-11-25T14:07:58Z</time>
      </trkpt>
      <trkpt lat="43.69337" lon="3.09863">
        <ele>719.49199135978</ele>
        <time>2017-11-25T14:08:38Z</time>
      </trkpt>
      <trkpt lat="43.6933" lon="3.09877">
        <ele>716.71333519606</ele>
        <time>2017-11-25T14:08:38Z</time>
      </trkpt>
      <trkpt lat="43.69238" lon="3.09964">
        <ele>714.74338036905</ele>
        <time>2017-11-25T14:10:31Z</time>
      </trkpt>
      <trkpt lat="43.69224" lon="3.09965">
        <ele>712.59523827333</ele>
        <time>2017-11-25T14:10:56Z</time>
      </trkpt>
      <trkpt lat="43.69182" lon="3.09951">
        <ele>710.17609689063</ele>
        <time>2017-11-25T14:12:01Z</time>
      </trkpt>
      <trkpt lat="43.69175" lon="3.09949">
        <ele>710.17609689063</ele>
        <time>2017-11-25T14:12:41Z</time>
      </trkpt>
      <trkpt lat="43.69166" lon="3.09943">
        <ele>707.6741774252</ele>
        <time>2017-11-25T14:12:59Z</time>
      </trkpt>
      <trkpt lat="43.69154" lon="3.09934">
        <ele>705.29257140034</ele>
        <time>2017-11-25T14:13:11Z</time>
      </trkpt>
      <trkpt lat="43.69103" lon="3.09939">
        <ele>702.4837876627</ele>
        <time>2017-11-25T14:14:34Z</time>
      </trkpt>
      <trkpt lat="43.69085" lon="3.09939">
        <ele>699.7501695071</ele>
        <time>2017-11-25T14:14:52Z</time>
      </trkpt>
      <trkpt lat="43.69082" lon="3.0994">
        <ele>699.7501695071</ele>
        <time>2017-11-25T14:14:59Z</time>
      </trkpt>
      <trkpt lat="43.69064" lon="3.09952">
        <ele>696.98014164598</ele>
        <time>2017-11-25T14:15:06Z</time>
      </trkpt>
      <trkpt lat="43.69066" lon="3.09955">
        <ele>696.98014164598</ele>
        <time>2017-11-25T14:15:11Z</time>
      </trkpt>
      <trkpt lat="43.69056" lon="3.09948">
        <ele>693.8106649932</ele>
        <time>2017-11-25T14:15:47Z</time>
      </trkpt>
      <trkpt lat="43.68991" lon="3.09977">
        <ele>688.42177794349</ele>
        <time>2017-11-25T14:17:17Z</time>
      </trkpt>
      <trkpt lat="43.6895" lon="3.09998">
        <ele>681.52530740542</ele>
        <time>2017-11-25T14:18:01Z</time>
      </trkpt>
      <trkpt lat="43.68911" lon="3.10038">
        <ele>671.57972159051</ele>
        <time>2017-11-25T14:19:23Z</time>
      </trkpt>
      <trkpt lat="43.6891" lon="3.10039">
        <ele>671.57972159051</ele>
        <time>2017-11-25T14:19:23Z</time>
      </trkpt>
      <trkpt lat="43.68898" lon="3.10055">
        <ele>661.68994662656</ele>
        <time>2017-11-25T14:19:50Z</time>
      </trkpt>
      <trkpt lat="43.68914" lon="3.10056">
        <ele>651.05736520456</ele>
        <time>2017-11-25T14:20:50Z</time>
      </trkpt>
      <trkpt lat="43.68985" lon="3.10031">
        <ele>641.63848036802</ele>
        <time>2017-11-25T14:22:00Z</time>
      </trkpt>
      <trkpt lat="43.69016" lon="3.1002">
        <ele>633.80100837634</ele>
        <time>2017-11-25T14:22:26Z</time>
      </trkpt>
      <trkpt lat="43.69019" lon="3.1002">
        <ele>633.80100837634</ele>
        <time>2017-11-25T14:22:26Z</time>
      </trkpt>
      <trkpt lat="43.69038" lon="3.10022">
        <ele>627.50595305266</ele>
        <time>2017-11-25T14:22:48Z</time>
      </trkpt>
      <trkpt lat="43.69043" lon="3.10021">
        <ele>627.50595305266</ele>
        <time>2017-11-25T14:22:51Z</time>
      </trkpt>
      <trkpt lat="43.69063" lon="3.10039">
        <ele>622.23669854123</ele>
        <time>2017-11-25T14:23:34Z</time>
      </trkpt>
      <trkpt lat="43.69089" lon="3.10073">
        <ele>617.1220078515</ele>
        <time>2017-11-25T14:24:01Z</time>
      </trkpt>
      <trkpt lat="43.69095" lon="3.10079">
        <ele>617.1220078515</ele>
        <time>2017-11-25T14:24:08Z</time>
      </trkpt>
      <trkpt lat="43.69141" lon="3.10163">
        <ele>612.40563604841</ele>
        <time>2017-11-25T14:25:37Z</time>
      </trkpt>
      <trkpt lat="43.69151" lon="3.10175">
        <ele>608.28292047573</ele>
        <time>2017-11-25T14:25:37Z</time>
      </trkpt>
      <trkpt lat="43.69194" lon="3.10247">
        <ele>604.55794179231</ele>
        <time>2017-11-25T14:26:46Z</time>
      </trkpt>
      <trkpt lat="43.69185" lon="3.1027">
        <ele>600.75930369646</ele>
        <time>2017-11-25T14:27:57Z</time>
      </trkpt>
      <trkpt lat="43.69182" lon="3.10312">
        <ele>597.02638312647</ele>
        <time>2017-11-25T14:28:11Z</time>
      </trkpt>
      <trkpt lat="43.69172" lon="3.10356">
        <ele>593.60294265553</ele>
        <time>2017-11-25T14:29:06Z</time>
      </trkpt>
      <trkpt lat="43.69139" lon="3.10417">
        <ele>589.18593609914</ele>
        <time>2017-11-25T14:30:43Z</time>
      </trkpt>
      <trkpt lat="43.69135" lon="3.10433">
        <ele>585.13557303278</ele>
        <time>2017-11-25T14:30:45Z</time>
      </trkpt>
      <trkpt lat="43.69136" lon="3.10434">
        <ele>585.13557303278</ele>
        <time>2017-11-25T14:30:46Z</time>
      </trkpt>
      <trkpt lat="43.69161" lon="3.10474">
        <ele>581.13989431745</ele>
        <time>2017-11-25T14:31:59Z</time>
      </trkpt>
      <trkpt lat="43.69161" lon="3.10487">
        <ele>577.55781819908</ele>
        <time>2017-11-25T14:31:59Z</time>
      </trkpt>
      <trkpt lat="43.69132" lon="3.10509">
        <ele>573.92776139873</ele>
        <time>2017-11-25T14:32:49Z</time>
      </trkpt>
      <trkpt lat="43.69144" lon="3.10538">
        <ele>570.55680907714</ele>
        <time>2017-11-25T14:33:12Z</time>
      </trkpt>
      <trkpt lat="43.69148" lon="3.10541">
        <ele>570.55680907714</ele>
        <time>2017-11-25T14:33:13Z</time>
      </trkpt>
      <trkpt lat="43.69162" lon="3.10549">
        <ele>567.55551130669</ele>
        <time>2017-11-25T14:33:32Z</time>
      </trkpt>
      <trkpt lat="43.69171" lon="3.1055">
        <ele>565.03938048177</ele>
        <time>2017-11-25T14:33:32Z</time>
      </trkpt>
      <trkpt lat="43.69192" lon="3.10546">
        <ele>562.72471828029</ele>
        <time>2017-11-25T14:34:00Z</time>
      </trkpt>
      <trkpt lat="43.69214" lon="3.10541">
        <ele>560.47756553838</ele>
        <time>2017-11-25T14:34:24Z</time>
      </trkpt>
      <trkpt lat="43.69215" lon="3.10541">
        <ele>560.47756553838</ele>
        <time>2017-11-25T14:34:32Z</time>
      </trkpt>
      <trkpt lat="43.69223" lon="3.10536">
        <ele>558.59132983956</ele>
        <time>2017-11-25T14:34:32Z</time>
      </trkpt>
      <trkpt lat="43.69233" lon="3.10522">
        <ele>556.70258608359</ele>
        <time>2017-11-25T14:34:44Z</time>
      </trkpt>
      <trkpt lat="43.69233" lon="3.10521">
        <ele>556.70258608359</ele>
        <time>2017-11-25T14:34:46Z</time>
      </trkpt>
      <trkpt lat="43.69246" lon="3.10508">
        <ele>554.56093067734</ele>
        <time>2017-11-25T14:35:04Z</time>
      </trkpt>
      <trkpt lat="43.6928" lon="3.10477">
        <ele>552.02140786661</ele>
        <time>2017-11-25T14:35:56Z</time>
      </trkpt>
      <trkpt lat="43.69286" lon="3.10457">
        <ele>548.82102650613</ele>
        <time>2017-11-25T14:36:11Z</time>
      </trkpt>
      <trkpt lat="43.69289" lon="3.10449">
        <ele>548.82102650613</ele>
        <time>2017-11-25T14:36:16Z</time>
      </trkpt>
      <trkpt lat="43.69299" lon="3.10439">
        <ele>545.12139843294</ele>
        <time>2017-11-25T14:36:33Z</time>
      </trkpt>
      <trkpt lat="43.69349" lon="3.10406">
        <ele>540.74214003135</ele>
        <time>2017-11-25T14:38:22Z</time>
      </trkpt>
      <trkpt lat="43.69364" lon="3.10415">
        <ele>536.7573218378</ele>
        <time>2017-11-25T14:38:22Z</time>
      </trkpt>
      <trkpt lat="43.69371" lon="3.10419">
        <ele>536.7573218378</ele>
        <time>2017-11-25T14:38:36Z</time>
      </trkpt>
      <trkpt lat="43.69374" lon="3.10423">
        <ele>533.16658739709</ele>
        <time>2017-11-25T14:38:36Z</time>
      </trkpt>
      <trkpt lat="43.69378" lon="3.10427">
        <ele>533.16658739709</ele>
        <time>2017-11-25T14:38:46Z</time>
      </trkpt>
      <trkpt lat="43.69392" lon="3.10441">
        <ele>529.76669824413</ele>
        <time>2017-11-25T14:39:12Z</time>
      </trkpt>
      <trkpt lat="43.694" lon="3.10444">
        <ele>529.76669824413</ele>
        <time>2017-11-25T14:39:12Z</time>
      </trkpt>
      <trkpt lat="43.69407" lon="3.10451">
        <ele>526.70022595825</ele>
        <time>2017-11-25T14:39:21Z</time>
      </trkpt>
      <trkpt lat="43.69454" lon="3.10472">
        <ele>523.01746745156</ele>
        <time>2017-11-25T14:40:17Z</time>
      </trkpt>
      <trkpt lat="43.69455" lon="3.10473">
        <ele>523.01746745156</ele>
        <time>2017-11-25T14:40:17Z</time>
      </trkpt>
      <trkpt lat="43.69433" lon="3.10498">
        <ele>518.1139978296</ele>
        <time>2017-11-25T14:41:01Z</time>
      </trkpt>
      <trkpt lat="43.69434" lon="3.10497">
        <ele>518.1139978296</ele>
        <time>2017-11-25T14:41:06Z</time>
      </trkpt>
      <trkpt lat="43.69432" lon="3.10503">
        <ele>518.1139978296</ele>
        <time>2017-11-25T14:41:25Z</time>
      </trkpt>
      <trkpt lat="43.69422" lon="3.10507">
        <ele>513.36428422652</ele>
        <time>2017-11-25T14:41:25Z</time>
      </trkpt>
      <trkpt lat="43.69407" lon="3.1051">
        <ele>509.01818402715</ele>
        <time>2017-11-25T14:41:39Z</time>
      </trkpt>
      <trkpt lat="43.69381" lon="3.10515">
        <ele>504.52784457673</ele>
        <time>2017-11-25T14:42:16Z</time>
      </trkpt>
      <trkpt lat="43.69369" lon="3.10513">
        <ele>500.26511614078</ele>
        <time>2017-11-25T14:42:36Z</time>
      </trkpt>
      <trkpt lat="43.69367" lon="3.10513">
        <ele>500.26511614078</ele>
        <time>2017-11-25T14:42:41Z</time>
      </trkpt>
      <trkpt lat="43.69367" lon="3.10514">
        <ele>500.26511614078</ele>
        <time>2017-11-25T14:42:46Z</time>
      </trkpt>
      <trkpt lat="43.69361" lon="3.10511">
        <ele>495.9974246982</ele>
        <time>2017-11-25T14:43:01Z</time>
      </trkpt>
      <trkpt lat="43.69352" lon="3.10509">
        <ele>492.15777108512</ele>
        <time>2017-11-25T14:43:11Z</time>
      </trkpt>
      <trkpt lat="43.69342" lon="3.10521">
        <ele>488.33910276152</ele>
        <time>2017-11-25T14:43:42Z</time>
      </trkpt>
      <trkpt lat="43.69343" lon="3.10518">
        <ele>488.33910276152</ele>
        <time>2017-11-25T14:43:42Z</time>
      </trkpt>
      <trkpt lat="43.69337" lon="3.10538">
        <ele>484.20742398422</ele>
        <time>2017-11-25T14:44:07Z</time>
      </trkpt>
      <trkpt lat="43.69299" lon="3.10637">
        <ele>479.12267825848</ele>
        <time>2017-11-25T14:45:13Z</time>
      </trkpt>
      <trkpt lat="43.69285" lon="3.10658">
        <ele>474.29587254005</ele>
        <time>2017-11-25T14:45:41Z</time>
      </trkpt>
      <trkpt lat="43.69278" lon="3.10666">
        <ele>474.29587254005</ele>
        <time>2017-11-25T14:45:43Z</time>
      </trkpt>
      <trkpt lat="43.69218" lon="3.107">
        <ele>469.19103165595</ele>
        <time>2017-11-25T14:46:32Z</time>
      </trkpt>
      <trkpt lat="43.69189" lon="3.10727">
        <ele>464.32108689452</ele>
        <time>2017-11-25T14:47:01Z</time>
      </trkpt>
      <trkpt lat="43.6918" lon="3.10737">
        <ele>459.93002531956</ele>
        <time>2017-11-25T14:47:23Z</time>
      </trkpt>
      <trkpt lat="43.69173" lon="3.10745">
        <ele>459.93002531956</ele>
        <time>2017-11-25T14:47:23Z</time>
      </trkpt>
      <trkpt lat="43.69142" lon="3.10771">
        <ele>455.27699200286</ele>
        <time>2017-11-25T14:48:12Z</time>
      </trkpt>
      <trkpt lat="43.69136" lon="3.10775">
        <ele>455.27699200286</ele>
        <time>2017-11-25T14:48:13Z</time>
      </trkpt>
      <trkpt lat="43.69093" lon="3.10814">
        <ele>449.89242273486</ele>
        <time>2017-11-25T14:49:06Z</time>
      </trkpt>
      <trkpt lat="43.69089" lon="3.1082">
        <ele>449.89242273486</ele>
        <time>2017-11-25T14:49:07Z</time>
      </trkpt>
      <trkpt lat="43.69078" lon="3.10842">
        <ele>444.23675145078</ele>
        <time>2017-11-25T14:49:30Z</time>
      </trkpt>
      <trkpt lat="43.69078" lon="3.10844">
        <ele>444.23675145078</ele>
        <time>2017-11-25T14:49:31Z</time>
      </trkpt>
      <trkpt lat="43.69063" lon="3.10857">
        <ele>438.6652519618</ele>
        <time>2017-11-25T14:49:58Z</time>
      </trkpt>
      <trkpt lat="43.6906" lon="3.10866">
        <ele>438.6652519618</ele>
        <time>2017-11-25T14:49:58Z</time>
      </trkpt>
      <trkpt lat="43.69063" lon="3.1089">
        <ele>431.59013430409</ele>
        <time>2017-11-25T14:50:55Z</time>
      </trkpt>
      <trkpt lat="43.69056" lon="3.10891">
        <ele>431.59013430409</ele>
        <time>2017-11-25T14:50:55Z</time>
      </trkpt>
      <trkpt lat="43.69056" lon="3.10891">
        <ele>431.59013430409</ele>
        <time>2017-11-25T14:50:56Z</time>
      </trkpt>
      <trkpt lat="43.69017" lon="3.10894">
        <ele>424.77249276804</ele>
        <time>2017-11-25T14:51:44Z</time>
      </trkpt>
      <trkpt lat="43.6901" lon="3.10899">
        <ele>424.77249276804</ele>
        <time>2017-11-25T14:51:44Z</time>
      </trkpt>
      <trkpt lat="43.68973" lon="3.10929">
        <ele>416.7448630599</ele>
        <time>2017-11-25T14:52:45Z</time>
      </trkpt>
      <trkpt lat="43.68961" lon="3.10939">
        <ele>409.13398118245</ele>
        <time>2017-11-25T14:53:00Z</time>
      </trkpt>
      <trkpt lat="43.6893" lon="3.10941">
        <ele>401.57235669251</ele>
        <time>2017-11-25T14:53:37Z</time>
      </trkpt>
      <trkpt lat="43.68923" lon="3.10944">
        <ele>401.57235669251</ele>
        <time>2017-11-25T14:53:37Z</time>
      </trkpt>
      <trkpt lat="43.689" lon="3.10947">
        <ele>394.22361475696</ele>
        <time>2017-11-25T14:54:01Z</time>
      </trkpt>
      <trkpt lat="43.68909" lon="3.10965">
        <ele>387.46919502804</ele>
        <time>2017-11-25T14:54:33Z</time>
      </trkpt>
      <trkpt lat="43.68904" lon="3.10975">
        <ele>387.46919502804</ele>
        <time>2017-11-25T14:54:51Z</time>
      </trkpt>
      <trkpt lat="43.68907" lon="3.10984">
        <ele>380.62309071353</ele>
        <time>2017-11-25T14:55:07Z</time>
      </trkpt>
      <trkpt lat="43.68907" lon="3.10994">
        <ele>380.62309071353</ele>
        <time>2017-11-25T14:55:07Z</time>
      </trkpt>
      <trkpt lat="43.68908" lon="3.11003">
        <ele>374.18825724856</ele>
        <time>2017-11-25T14:55:14Z</time>
      </trkpt>
      <trkpt lat="43.68907" lon="3.11005">
        <ele>374.18825724856</ele>
        <time>2017-11-25T14:55:17Z</time>
      </trkpt>
      <trkpt lat="43.68899" lon="3.11025">
        <ele>368.2114556879</ele>
        <time>2017-11-25T14:55:49Z</time>
      </trkpt>
      <trkpt lat="43.68896" lon="3.11034">
        <ele>368.2114556879</ele>
        <time>2017-11-25T14:55:49Z</time>
      </trkpt>
      <trkpt lat="43.68886" lon="3.11066">
        <ele>361.43755214714</ele>
        <time>2017-11-25T14:56:33Z</time>
      </trkpt>
      <trkpt lat="43.68868" lon="3.11072">
        <ele>355.21320930396</ele>
        <time>2017-11-25T14:57:09Z</time>
      </trkpt>
      <trkpt lat="43.68845" lon="3.1108">
        <ele>349.67479348372</ele>
        <time>2017-11-25T14:57:27Z</time>
      </trkpt>
      <trkpt lat="43.6884" lon="3.11083">
        <ele>349.67479348372</ele>
        <time>2017-11-25T14:57:28Z</time>
      </trkpt>
      <trkpt lat="43.68805" lon="3.11092">
        <ele>344.26923658567</ele>
        <time>2017-11-25T14:58:09Z</time>
      </trkpt>
      <trkpt lat="43.68787" lon="3.11108">
        <ele>339.44910654642</ele>
        <time>2017-11-25T14:58:37Z</time>
      </trkpt>
      <trkpt lat="43.68779" lon="3.11113">
        <ele>335.28606324347</ele>
        <time>2017-11-25T14:58:37Z</time>
      </trkpt>
      <trkpt lat="43.68758" lon="3.11126">
        <ele>331.68599772682</ele>
        <time>2017-11-25T14:58:56Z</time>
      </trkpt>
      <trkpt lat="43.68755" lon="3.11129">
        <ele>331.68599772682</ele>
        <time>2017-11-25T14:59:38Z</time>
      </trkpt>
      <trkpt lat="43.68687" lon="3.1118">
        <ele>328.45913585152</ele>
        <time>2017-11-25T15:00:08Z</time>
      </trkpt>
      <trkpt lat="43.68632" lon="3.11184">
        <ele>325.42849696612</ele>
        <time>2017-11-25T15:01:05Z</time>
      </trkpt>
      <trkpt lat="43.68631" lon="3.11183">
        <ele>325.42849696612</ele>
        <time>2017-11-25T15:01:08Z</time>
      </trkpt>
      <trkpt lat="43.68558" lon="3.11169">
        <ele>322.61681822933</ele>
        <time>2017-11-25T15:02:02Z</time>
      </trkpt>
      <trkpt lat="43.68542" lon="3.11169">
        <ele>320.27507763609</ele>
        <time>2017-11-25T15:02:18Z</time>
      </trkpt>
      <trkpt lat="43.68518" lon="3.11176">
        <ele>318.14449292174</ele>
        <time>2017-11-25T15:02:51Z</time>
      </trkpt>
      <trkpt lat="43.68514" lon="3.1118">
        <ele>318.14449292174</ele>
        <time>2017-11-25T15:02:56Z</time>
      </trkpt>
      <trkpt lat="43.6846" lon="3.11218">
        <ele>316.08557547148</ele>
        <time>2017-11-25T15:04:07Z</time>
      </trkpt>
      <trkpt lat="43.68453" lon="3.11225">
        <ele>314.50211801664</ele>
        <time>2017-11-25T15:04:07Z</time>
      </trkpt>
      <trkpt lat="43.68436" lon="3.11242">
        <ele>313.27698999914</ele>
        <time>2017-11-25T15:04:32Z</time>
      </trkpt>
      <trkpt lat="43.68435" lon="3.11243">
        <ele>313.27698999914</ele>
        <time>2017-11-25T15:04:32Z</time>
      </trkpt>
      <trkpt lat="43.68422" lon="3.1125">
        <ele>312.43043779428</ele>
        <time>2017-11-25T15:04:59Z</time>
      </trkpt>
      <trkpt lat="43.68421" lon="3.11249">
        <ele>312.43043779428</ele>
        <time>2017-11-25T15:04:59Z</time>
      </trkpt>
      <trkpt lat="43.68421" lon="3.11249">
        <ele>312.43043779428</ele>
        <time>2017-11-25T15:05:05Z</time>
      </trkpt>
      <trkpt lat="43.68411" lon="3.11244">
        <ele>311.93703040505</ele>
        <time>2017-11-25T15:05:27Z</time>
      </trkpt>
      <trkpt lat="43.68405" lon="3.11245">
        <ele>311.93703040505</ele>
        <time>2017-11-25T15:05:30Z</time>
      </trkpt>
      <trkpt lat="43.68405" lon="3.11245">
        <ele>311.93703040505</ele>
        <time>2017-11-25T15:05:32Z</time>
      </trkpt>
      <trkpt lat="43.68399" lon="3.11248">
        <ele>311.77234787356</ele>
        <time>2017-11-25T15:05:38Z</time>
      </trkpt>
      <trkpt lat="43.68385" lon="3.11256">
        <ele>311.95623760675</ele>
        <time>2017-11-25T15:05:56Z</time>
      </trkpt>
      <trkpt lat="43.68379" lon="3.11264">
        <ele>311.95623760675</ele>
        <time>2017-11-25T15:06:01Z</time>
      </trkpt>
      <trkpt lat="43.68375" lon="3.11268">
        <ele>312.59276940125</ele>
        <time>2017-11-25T15:06:06Z</time>
      </trkpt>
      <trkpt lat="43.68371" lon="3.1127">
        <ele>312.59276940125</ele>
        <time>2017-11-25T15:06:11Z</time>
      </trkpt>
      <trkpt lat="43.68367" lon="3.11269">
        <ele>312.59276940125</ele>
        <time>2017-11-25T15:06:16Z</time>
      </trkpt>
      <trkpt lat="43.68364" lon="3.11268">
        <ele>313.43145228144</ele>
        <time>2017-11-25T15:06:27Z</time>
      </trkpt>
      <trkpt lat="43.68357" lon="3.1127">
        <ele>313.43145228144</ele>
        <time>2017-11-25T15:06:27Z</time>
      </trkpt>
      <trkpt lat="43.68345" lon="3.1126">
        <ele>314.21105614983</ele>
        <time>2017-11-25T15:06:52Z</time>
      </trkpt>
      <trkpt lat="43.68341" lon="3.11262">
        <ele>314.21105614983</ele>
        <time>2017-11-25T15:06:56Z</time>
      </trkpt>
      <trkpt lat="43.68248" lon="3.11339">
        <ele>315.00702766963</ele>
        <time>2017-11-25T15:08:42Z</time>
      </trkpt>
      <trkpt lat="43.68246" lon="3.1134">
        <ele>315.00702766963</ele>
        <time>2017-11-25T15:08:43Z</time>
      </trkpt>
      <trkpt lat="43.68124" lon="3.11363">
        <ele>314.44841331126</ele>
        <time>2017-11-25T15:10:41Z</time>
      </trkpt>
      <trkpt lat="43.6811" lon="3.11368">
        <ele>314.19454458164</ele>
        <time>2017-11-25T15:10:56Z</time>
      </trkpt>
      <trkpt lat="43.68079" lon="3.1137">
        <ele>314.21152661698</ele>
        <time>2017-11-25T15:11:21Z</time>
      </trkpt>
      <trkpt lat="43.68072" lon="3.11372">
        <ele>314.21152661698</ele>
        <time>2017-11-25T15:11:26Z</time>
      </trkpt>
      <trkpt lat="43.68056" lon="3.11384">
        <ele>314.77017381701</ele>
        <time>2017-11-25T15:11:43Z</time>
      </trkpt>
      <trkpt lat="43.68054" lon="3.11386">
        <ele>314.77017381701</ele>
        <time>2017-11-25T15:11:46Z</time>
      </trkpt>
      <trkpt lat="43.68049" lon="3.1139">
        <ele>314.77017381701</ele>
        <time>2017-11-25T15:11:51Z</time>
      </trkpt>
      <trkpt lat="43.68029" lon="3.11399">
        <ele>315.24116471254</ele>
        <time>2017-11-25T15:12:06Z</time>
      </trkpt>
      <trkpt lat="43.68023" lon="3.11402">
        <ele>315.24116471254</ele>
        <time>2017-11-25T15:12:11Z</time>
      </trkpt>
      <trkpt lat="43.68011" lon="3.11403">
        <ele>315.66169692279</ele>
        <time>2017-11-25T15:12:21Z</time>
      </trkpt>
      <trkpt lat="43.68005" lon="3.11405">
        <ele>315.66169692279</ele>
        <time>2017-11-25T15:12:26Z</time>
      </trkpt>
      <trkpt lat="43.67988" lon="3.11407">
        <ele>316.05234079682</ele>
        <time>2017-11-25T15:12:41Z</time>
      </trkpt>
      <trkpt lat="43.67984" lon="3.11407">
        <ele>316.05234079682</ele>
        <time>2017-11-25T15:12:46Z</time>
      </trkpt>
      <trkpt lat="43.67981" lon="3.11408">
        <ele>316.05234079682</ele>
        <time>2017-11-25T15:12:51Z</time>
      </trkpt>
      <trkpt lat="43.67971" lon="3.11411">
        <ele>316.27409948118</ele>
        <time>2017-11-25T15:13:01Z</time>
      </trkpt>
    </trkseg>
  </trk>
</gpx>